createdAt,value
2019-03-10T00:01:42.139Z,5.55
2019-03-10T00:04:13.349Z,5.51
2019-03-10T00:06:44.607Z,5.44
2019-03-10T00:09:15.821Z,5.39
2019-03-10T00:11:47.044Z,5.36
2019-03-10T00:14:18.211Z,5.27
2019-03-10T00:16:49.395Z,5.18
2019-03-10T00:19:20.596Z,5.08
2019-03-10T00:21:51.867Z,4.99
2019-03-10T00:24:23.087Z,4.97
2019-03-10T00:26:54.286Z,4.91
2019-03-10T00:29:25.610Z,4.92
2019-03-10T00:31:56.824Z,4.89
2019-03-10T00:34:29.590Z,4.89
2019-03-10T00:37:00.876Z,4.83
2019-03-10T00:39:58.669Z,4.82
2019-03-10T00:43:01.721Z,4.77
2019-03-10T00:46:05.431Z,4.75
2019-03-10T00:49:02.189Z,4.72
2019-03-10T00:51:42.354Z,4.76
2019-03-10T00:54:13.611Z,4.77
2019-03-10T00:56:45.415Z,4.78
2019-03-10T00:59:18.263Z,4.81
2019-03-10T01:01:49.980Z,4.83
2019-03-10T01:04:20.310Z,4.83
2019-03-10T01:06:53.735Z,4.81
2019-03-10T01:09:25.131Z,4.85
2019-03-10T01:11:56.257Z,4.86
2019-03-10T01:14:28.994Z,4.86
2019-03-10T01:17:01.460Z,4.88
2019-03-10T01:19:34.340Z,4.89
2019-03-10T01:22:05.537Z,4.95
2019-03-10T01:24:39.319Z,4.94
2019-03-10T01:27:10.478Z,4.99
2019-03-10T01:29:41.654Z,5.03
2019-03-10T01:32:25.134Z,4.98
2019-03-10T01:35:08.616Z,5.05
2019-03-10T01:37:39.712Z,5.07
2019-03-10T01:40:10.851Z,5.08
2019-03-10T01:42:41.284Z,5.16
2019-03-10T01:45:13.077Z,5.14
2019-03-10T01:47:44.182Z,5.16
2019-03-10T01:50:15.353Z,5.15
2019-03-10T01:52:46.491Z,5.17
2019-03-10T01:55:18.932Z,5.19
2019-03-10T01:57:50.095Z,5.21
2019-03-10T02:00:21.369Z,5.27
2019-03-10T02:02:52.499Z,5.26
2019-03-10T02:05:24.945Z,5.23
2019-03-10T02:07:56.130Z,5.23
2019-03-10T02:10:27.244Z,5.25
2019-03-10T02:12:58.711Z,5.24
2019-03-10T02:15:29.850Z,5.25
2019-03-10T02:18:00.996Z,5.29
2019-03-10T02:20:32.201Z,5.27
2019-03-10T02:23:03.362Z,5.25
2019-03-10T02:25:35.026Z,5.26
2019-03-10T02:28:07.767Z,5.25
2019-03-10T02:30:38.944Z,5.26
2019-03-10T02:33:10.087Z,5.24
2019-03-10T02:35:41.231Z,5.27
2019-03-10T02:38:12.384Z,5.10
2019-03-10T02:40:44.371Z,5.33
2019-03-10T02:43:15.535Z,5.33
2019-03-10T02:45:46.771Z,5.28
2019-03-10T02:48:18.058Z,5.29
2019-03-10T02:50:49.168Z,5.30
2019-03-10T02:53:20.480Z,5.26
2019-03-10T02:55:51.758Z,5.22
2019-03-10T02:58:22.919Z,5.21
2019-03-10T03:00:54.065Z,5.19
2019-03-10T03:03:25.237Z,5.17
2019-03-10T03:05:56.510Z,5.09
2019-03-10T03:08:27.668Z,5.11
2019-03-10T03:11:00.337Z,5.17
2019-03-10T03:13:31.862Z,5.08
2019-03-10T03:16:03.018Z,5.16
2019-03-10T03:18:34.191Z,5.09
2019-03-10T03:21:05.445Z,5.02
2019-03-10T03:23:36.565Z,4.89
2019-03-10T03:26:07.068Z,4.99
2019-03-10T03:28:38.174Z,4.92
2019-03-10T03:31:11.025Z,4.91
2019-03-10T03:33:42.056Z,4.88
2019-03-10T03:36:22.000Z,4.88
2019-03-10T03:38:59.164Z,4.82
2019-03-10T03:41:30.364Z,4.88
2019-03-10T03:44:01.527Z,4.91
2019-03-10T03:46:32.691Z,4.83
2019-03-10T03:49:07.325Z,4.80
2019-03-10T03:51:38.631Z,4.75
2019-03-10T03:54:09.861Z,4.75
2019-03-10T03:56:41.065Z,4.71
2019-03-10T03:59:13.717Z,4.72
2019-03-10T04:01:47.494Z,4.69
2019-03-10T04:04:18.705Z,4.71
2019-03-10T04:06:49.922Z,4.71
2019-03-10T04:09:21.086Z,4.65
2019-03-10T04:11:52.391Z,4.63
2019-03-10T04:14:23.571Z,4.61
2019-03-10T04:16:56.294Z,4.72
2019-03-10T04:19:27.867Z,4.75
2019-03-10T04:21:59.354Z,4.32
2019-03-10T04:24:30.860Z,4.69
2019-03-10T04:27:02.171Z,4.75
2019-03-10T04:29:33.287Z,4.75
2019-03-10T04:32:04.438Z,4.81
2019-03-10T04:34:35.633Z,4.90
2019-03-10T04:37:08.446Z,5.10
2019-03-10T04:39:39.573Z,5.23
2019-03-10T04:42:10.718Z,5.29
2019-03-10T04:44:41.879Z,5.34
2019-03-10T04:47:13.103Z,5.36
2019-03-10T04:49:44.729Z,5.42
2019-03-10T04:52:15.920Z,5.43
2019-03-10T04:54:57.676Z,5.45
2019-03-10T04:57:28.944Z,5.44
2019-03-10T05:00:02.813Z,5.44
2019-03-10T05:02:34.195Z,5.49
2019-03-10T05:05:06.967Z,5.54
2019-03-10T05:07:39.021Z,5.60
2019-03-10T05:10:11.515Z,5.59
2019-03-10T05:12:42.736Z,5.72
2019-03-10T05:15:13.857Z,5.87
2019-03-10T05:17:45.025Z,5.93
2019-03-10T05:20:16.248Z,5.98
2019-03-10T05:22:47.452Z,6.05
2019-03-10T05:25:22.507Z,6.04
2019-03-10T05:27:53.729Z,6.06
2019-03-10T05:30:24.890Z,6.09
2019-03-10T05:32:57.267Z,6.08
2019-03-10T05:35:28.412Z,6.09
2019-03-10T05:37:59.702Z,6.11
2019-03-10T05:40:30.865Z,6.24
2019-03-10T05:43:02.007Z,6.32
2019-03-10T05:45:34.044Z,6.34
2019-03-10T05:48:06.375Z,6.35
2019-03-10T05:50:37.518Z,6.38
2019-03-10T05:53:08.707Z,6.39
2019-03-10T05:55:40.982Z,6.41
2019-03-10T05:58:13.731Z,6.38
2019-03-10T06:00:44.871Z,6.24
2019-03-10T06:03:16.085Z,6.14
2019-03-10T06:05:47.322Z,6.06
2019-03-10T06:08:18.588Z,5.92
2019-03-10T06:10:51.245Z,5.85
2019-03-10T06:13:24.641Z,5.79
2019-03-10T06:15:56.402Z,5.77
2019-03-10T06:18:27.599Z,5.71
2019-03-10T06:20:58.735Z,5.65
2019-03-10T06:23:31.316Z,5.64
2019-03-10T06:26:03.384Z,5.68
2019-03-10T06:28:34.508Z,5.72
2019-03-10T06:31:06.122Z,5.81
2019-03-10T06:33:37.382Z,5.85
2019-03-10T06:36:10.050Z,5.92
2019-03-10T06:38:41.369Z,6.16
2019-03-10T06:41:12.560Z,6.39
2019-03-10T06:43:43.851Z,6.59
2019-03-10T06:46:15.109Z,6.75
2019-03-10T06:48:46.662Z,6.82
2019-03-10T06:51:19.658Z,6.73
2019-03-10T06:53:50.920Z,6.82
2019-03-10T06:56:23.641Z,6.87
2019-03-10T06:58:54.863Z,7.10
2019-03-10T07:01:26.048Z,7.25
2019-03-10T07:03:58.249Z,7.31
2019-03-10T07:06:29.399Z,7.30
2019-03-10T07:09:00.853Z,7.40
2019-03-10T07:11:35.867Z,7.41
2019-03-10T07:14:07.204Z,7.38
2019-03-10T07:16:38.387Z,7.60
2019-03-10T07:19:10.442Z,7.98
2019-03-10T07:21:42.896Z,8.79
2019-03-10T07:24:14.088Z,9.46
2019-03-10T07:26:45.269Z,10.10
2019-03-10T07:29:23.828Z,10.58
2019-03-10T07:31:56.551Z,10.48
2019-03-10T07:34:30.215Z,11.04
2019-03-10T07:37:11.130Z,12.04
2019-03-10T07:39:49.621Z,12.59
2019-03-10T07:42:23.542Z,12.24
2019-03-10T07:44:59.483Z,11.91
2019-03-10T07:47:45.764Z,11.48
2019-03-10T07:50:24.424Z,10.65
2019-03-10T07:53:05.996Z,9.95
2019-03-10T07:55:44.713Z,9.59
2019-03-10T07:58:17.468Z,9.29
2019-03-10T08:00:55.776Z,8.90
2019-03-10T08:03:44.738Z,8.81
2019-03-10T08:06:23.248Z,8.79
2019-03-10T08:09:12.238Z,8.84
2019-03-10T08:12:01.102Z,8.77
2019-03-10T08:14:40.134Z,8.87
2019-03-10T08:17:24.792Z,9.33
2019-03-10T08:20:03.570Z,9.67
2019-03-10T08:22:54.519Z,9.68
2019-03-10T08:25:43.587Z,9.66
2019-03-10T08:28:34.577Z,9.71
2019-03-10T08:31:25.297Z,9.68
2019-03-10T08:33:58.080Z,9.68
2019-03-10T08:36:37.548Z,9.76
2019-03-10T08:39:26.647Z,9.83
2019-03-10T08:42:19.444Z,9.90
2019-03-10T08:44:56.208Z,9.83
2019-03-10T08:47:38.693Z,9.68
2019-03-10T08:50:11.452Z,9.46
2019-03-10T08:52:44.172Z,9.36
2019-03-10T08:55:35.229Z,9.07
2019-03-10T08:58:11.936Z,9.01
2019-03-10T09:01:03.035Z,8.85
2019-03-10T09:03:54.076Z,8.29
2019-03-10T09:06:38.872Z,8.76
2019-03-10T09:09:17.639Z,8.64
2019-03-10T09:11:50.578Z,8.41
2019-03-10T09:14:35.624Z,8.29
2019-03-10T09:17:15.636Z,8.26
2019-03-10T09:19:48.372Z,8.06
2019-03-10T09:22:26.992Z,8.05
2019-03-10T09:25:18.035Z,7.94
2019-03-10T09:27:56.959Z,7.89
2019-03-10T09:30:38.470Z,7.71
2019-03-10T09:33:17.393Z,7.67
2019-03-10T09:35:50.121Z,7.69
2019-03-10T09:38:22.856Z,7.69
2019-03-10T09:40:59.584Z,7.60
2019-03-10T09:43:35.217Z,7.64
2019-03-10T09:46:13.666Z,7.64
2019-03-10T09:48:46.413Z,7.62
2019-03-10T09:51:22.101Z,7.56
2019-03-10T09:54:03.924Z,7.48
2019-03-10T09:56:38.436Z,7.51
2019-03-10T09:59:13.974Z,7.51
2019-03-10T10:01:51.572Z,7.49
2019-03-10T10:04:41.536Z,7.52
2019-03-10T10:07:14.440Z,7.47
2019-03-10T10:09:56.088Z,7.48
2019-03-10T10:12:29.532Z,7.36
2019-03-10T10:15:05.075Z,7.23
2019-03-10T10:17:49.889Z,7.08
2019-03-10T10:20:34.585Z,6.87
2019-03-10T10:23:23.387Z,6.84
2019-03-10T10:25:58.820Z,6.74
2019-03-10T10:28:37.324Z,6.74
2019-03-10T10:31:25.078Z,6.83
2019-03-10T10:34:01.151Z,6.73
2019-03-10T10:36:42.681Z,6.81
2019-03-10T10:40:12.158Z,7.11
2019-03-10T10:43:01.953Z,7.28
2019-03-10T10:45:34.695Z,7.45
2019-03-10T10:48:07.585Z,7.54
2019-03-10T10:50:55.505Z,7.79
2019-03-10T10:53:28.188Z,7.75
2019-03-10T10:56:14.452Z,7.33
2019-03-10T10:58:56.177Z,7.27
2019-03-10T11:01:31.618Z,6.91
2019-03-10T11:04:16.589Z,7.08
2019-03-10T11:06:51.051Z,7.23
2019-03-10T11:09:23.909Z,6.85
2019-03-10T11:12:05.670Z,6.70
2019-03-10T11:14:44.437Z,6.47
2019-03-10T11:17:28.964Z,6.39
2019-03-10T11:20:20.339Z,6.43
2019-03-10T11:23:09.788Z,6.35
2019-03-10T11:25:56.858Z,6.24
2019-03-10T11:28:29.608Z,6.23
2019-03-10T11:31:06.863Z,6.28
2019-03-10T11:33:46.051Z,6.26
2019-03-10T11:36:35.099Z,6.12
2019-03-10T11:39:24.705Z,6.20
2019-03-10T11:42:01.476Z,6.26
2019-03-10T11:44:37.243Z,6.05
2019-03-10T11:47:16.168Z,5.84
2019-03-10T11:49:58.103Z,5.73
2019-03-10T11:52:30.836Z,5.77
2019-03-10T11:55:10.029Z,6.03
2019-03-10T11:57:42.749Z,6.22
2019-03-10T12:00:33.714Z,6.23
2019-03-10T12:03:22.891Z,6.21
2019-03-10T12:05:58.670Z,6.15
2019-03-10T12:08:46.740Z,6.18
2019-03-10T12:11:18.875Z,5.97
2019-03-10T12:13:50.052Z,5.33
2019-03-10T12:16:21.284Z,5.10
2019-03-10T12:18:53.702Z,5.41
2019-03-10T12:21:24.925Z,5.57
2019-03-10T12:23:56.101Z,5.58
2019-03-10T12:26:27.236Z,5.55
2019-03-10T12:28:58.406Z,5.49
2019-03-10T12:31:29.616Z,5.33
2019-03-10T12:34:01.086Z,5.42
2019-03-10T12:36:32.249Z,5.36
2019-03-10T12:39:09.851Z,5.46
2019-03-10T12:41:43.247Z,5.56
2019-03-10T12:44:14.462Z,5.72
2019-03-10T12:46:46.967Z,5.71
2019-03-10T12:49:18.163Z,5.74
2019-03-10T12:51:49.322Z,5.63
2019-03-10T12:54:21.301Z,5.61
2019-03-10T12:56:52.463Z,5.54
2019-03-10T12:59:23.722Z,5.40
2019-03-10T13:01:55.461Z,5.45
2019-03-10T13:04:26.627Z,5.38
2019-03-10T13:06:58.136Z,5.51
2019-03-10T13:09:30.318Z,5.61
2019-03-10T13:12:03.528Z,5.71
2019-03-10T13:14:36.265Z,5.74
2019-03-10T13:17:08.071Z,5.77
2019-03-10T13:19:39.193Z,5.81
2019-03-10T13:22:10.395Z,5.67
2019-03-10T13:24:40.840Z,5.58
2019-03-10T13:27:11.895Z,5.73
2019-03-10T13:29:44.802Z,5.70
2019-03-10T13:32:17.099Z,5.69
2019-03-10T13:34:50.443Z,5.62
2019-03-10T13:37:23.154Z,5.62
2019-03-10T13:39:54.274Z,5.56
2019-03-10T13:42:27.031Z,5.55
2019-03-10T13:44:59.819Z,5.58
2019-03-10T13:47:31.025Z,5.58
2019-03-10T13:50:02.249Z,5.50
2019-03-10T13:52:33.457Z,5.51
2019-03-10T13:55:06.504Z,5.48
2019-03-10T13:57:38.074Z,5.47
2019-03-10T14:00:23.897Z,5.49
2019-03-10T14:02:55.643Z,5.55
2019-03-10T14:05:26.944Z,5.65
2019-03-10T14:07:59.086Z,5.61
2019-03-10T14:10:36.854Z,5.56
2019-03-10T14:13:09.094Z,5.77
2019-03-10T14:15:40.298Z,5.75
2019-03-10T14:18:11.434Z,5.87
2019-03-10T14:20:42.963Z,5.79
2019-03-10T14:23:14.194Z,5.82
2019-03-10T14:25:48.584Z,5.85
2019-03-10T14:28:22.064Z,5.81
2019-03-10T14:30:54.295Z,5.88
2019-03-10T14:33:27.487Z,5.84
2019-03-10T14:35:59.605Z,5.88
2019-03-10T14:38:32.737Z,5.91
2019-03-10T14:41:06.194Z,5.92
2019-03-10T14:43:37.866Z,6.03
2019-03-10T14:46:09.490Z,6.06
2019-03-10T14:48:42.197Z,5.98
2019-03-10T14:51:14.788Z,6.02
2019-03-10T14:53:45.928Z,5.96
2019-03-10T14:56:17.101Z,5.96
2019-03-10T14:58:49.887Z,5.96
2019-03-10T15:01:22.375Z,5.94
2019-03-10T15:03:53.780Z,5.89
2019-03-10T15:06:26.474Z,5.94
2019-03-10T15:08:57.641Z,5.86
2019-03-10T15:11:29.211Z,5.86
2019-03-10T15:14:00.281Z,5.80
2019-03-10T15:16:31.598Z,5.82
2019-03-10T15:19:03.272Z,5.85
2019-03-10T15:21:34.537Z,5.74
2019-03-10T15:24:07.222Z,5.74
2019-03-10T15:26:45.683Z,5.74
2019-03-10T15:29:11.292Z,5.72
2019-03-10T15:31:42.580Z,5.73
2019-03-10T15:34:14.379Z,5.72
2019-03-10T15:36:45.517Z,5.71
2019-03-10T15:39:18.048Z,5.69
2019-03-10T15:41:50.858Z,5.67
2019-03-10T15:44:22.057Z,5.74
2019-03-10T15:46:54.762Z,5.69
2019-03-10T15:49:26.451Z,5.69
2019-03-10T15:52:00.712Z,5.73
2019-03-10T15:54:34.946Z,5.76
2019-03-10T15:57:06.220Z,5.76
2019-03-10T15:59:39.106Z,5.76
2019-03-10T16:02:10.684Z,5.70
2019-03-10T16:04:44.015Z,5.71
2019-03-10T16:07:15.159Z,5.70
2019-03-10T16:09:46.315Z,5.73
2019-03-10T16:12:17.496Z,5.64
2019-03-10T16:14:48.643Z,5.57
2019-03-10T16:17:19.954Z,5.58
2019-03-10T16:19:51.619Z,5.47
2019-03-10T16:22:22.772Z,5.42
2019-03-10T16:24:53.955Z,5.37
2019-03-10T16:27:26.762Z,5.33
2019-03-10T16:29:59.464Z,5.33
2019-03-10T16:32:30.599Z,5.28
2019-03-10T16:35:03.114Z,5.27
2019-03-10T16:37:34.253Z,5.25
2019-03-10T16:40:14.590Z,5.29
2019-03-10T16:42:48.014Z,5.31
2019-03-10T16:45:27.780Z,5.29
2019-03-10T16:47:58.892Z,5.30
2019-03-10T16:50:30.481Z,5.37
2019-03-10T16:53:01.710Z,5.31
2019-03-10T16:55:32.819Z,5.36
2019-03-10T16:58:03.330Z,5.37
2019-03-10T17:00:34.444Z,5.39
2019-03-10T17:03:57.561Z,5.38
2019-03-10T17:06:29.891Z,5.39
2019-03-10T17:09:04.568Z,5.41
2019-03-10T17:11:38.582Z,5.39
2019-03-10T17:14:10.555Z,5.42
2019-03-10T17:16:41.729Z,5.44
2019-03-10T17:19:12.950Z,5.44
2019-03-10T17:21:44.078Z,5.40
2019-03-10T17:24:14.503Z,5.39
2019-03-10T17:26:45.671Z,5.39
2019-03-10T17:29:16.889Z,5.40
2019-03-10T17:31:49.020Z,5.44
2019-03-10T17:34:20.165Z,5.41
2019-03-10T17:36:52.316Z,5.42
2019-03-10T17:39:23.451Z,5.42
2019-03-10T17:41:54.626Z,5.43
2019-03-10T17:44:27.391Z,5.46
2019-03-10T17:46:58.587Z,5.39
2019-03-10T17:49:29.934Z,5.32
2019-03-10T17:52:01.065Z,5.28
2019-03-10T17:54:33.987Z,5.21
2019-03-10T17:57:05.153Z,5.21
2019-03-10T17:59:36.310Z,5.21
2019-03-10T18:02:09.348Z,5.22
2019-03-10T18:04:40.262Z,5.23
2019-03-10T18:07:11.380Z,5.17
2019-03-10T18:09:43.663Z,5.10
2019-03-10T18:12:14.978Z,5.07
2019-03-10T18:14:46.049Z,5.05
2019-03-10T18:17:17.620Z,5.06
2019-03-10T18:19:48.800Z,5.09
2019-03-10T18:22:21.167Z,5.07
2019-03-10T18:24:52.354Z,5.06
2019-03-10T18:27:23.524Z,5.03
2019-03-10T18:29:54.787Z,5.01
2019-03-10T18:32:28.012Z,4.96
2019-03-10T18:34:59.350Z,4.95
2019-03-10T18:37:33.002Z,4.95
2019-03-10T18:40:05.081Z,4.95
2019-03-10T18:42:36.262Z,4.92
2019-03-10T18:45:10.675Z,4.96
2019-03-10T18:47:43.385Z,4.97
2019-03-10T18:50:18.946Z,4.98
2019-03-10T18:52:49.959Z,4.96
2019-03-10T18:55:27.560Z,4.93
2019-03-10T18:58:00.123Z,4.94
2019-03-10T19:00:32.045Z,5.04
2019-03-10T19:03:03.078Z,5.04
2019-03-10T19:05:34.283Z,5.04
2019-03-10T19:08:06.108Z,5.06
2019-03-10T19:10:39.432Z,5.02
2019-03-10T19:13:12.053Z,4.99
2019-03-10T19:15:43.268Z,5.02
2019-03-10T19:18:15.936Z,4.95
2019-03-10T19:20:48.916Z,4.82
2019-03-10T19:23:22.877Z,4.73
2019-03-10T19:25:54.070Z,4.65
2019-03-10T19:28:25.277Z,4.63
2019-03-10T19:31:17.189Z,4.60
2019-03-10T19:33:50.653Z,4.50
2019-03-10T19:36:21.844Z,4.44
2019-03-10T19:38:52.940Z,4.32
2019-03-10T19:41:24.183Z,4.27
2019-03-10T19:43:55.307Z,4.27
2019-03-10T19:46:26.521Z,4.24
2019-03-10T19:48:59.188Z,4.16
2019-03-10T19:51:30.526Z,4.13
2019-03-10T19:54:01.669Z,4.03
2019-03-10T19:56:32.902Z,3.96
2019-03-10T19:59:05.042Z,3.88
2019-03-10T20:01:37.902Z,3.86
2019-03-10T20:04:09.091Z,3.88
2019-03-10T20:06:40.280Z,3.82
2019-03-10T20:09:11.445Z,3.75
2019-03-10T20:11:42.802Z,3.77
2019-03-10T20:14:13.894Z,3.71
2019-03-10T20:16:44.349Z,3.74
2019-03-10T20:19:16.750Z,3.73
2019-03-10T20:21:48.948Z,3.75
2019-03-10T20:24:20.195Z,3.74
2019-03-10T20:26:53.049Z,3.64
2019-03-10T20:29:24.223Z,3.57
2019-03-10T20:31:54.703Z,3.58
2019-03-10T20:34:25.814Z,3.57
2019-03-10T20:36:56.960Z,3.53
2019-03-10T20:39:29.705Z,3.58
2019-03-10T20:42:04.986Z,3.50
2019-03-10T20:44:35.219Z,3.52
2019-03-10T20:47:06.532Z,3.54
2019-03-10T20:49:38.740Z,3.45
2019-03-10T20:52:10.027Z,3.39
2019-03-10T20:54:42.497Z,3.40
2019-03-10T20:57:13.728Z,3.35
2019-03-10T20:59:44.811Z,3.35
2019-03-10T21:02:16.684Z,3.42
2019-03-10T21:04:47.815Z,3.47
2019-03-10T21:07:19.055Z,3.41
2019-03-10T21:09:50.181Z,3.38
2019-03-10T21:12:20.574Z,3.29
2019-03-10T21:14:51.604Z,3.31
2019-03-10T21:17:22.689Z,3.37
2019-03-10T21:19:53.035Z,3.35
2019-03-10T21:22:24.249Z,3.27
2019-03-10T21:24:57.311Z,3.24
2019-03-10T21:27:28.485Z,3.20
2019-03-10T21:29:59.622Z,3.19
2019-03-10T21:32:31.921Z,3.27
2019-03-10T21:35:03.063Z,3.24
2019-03-10T21:37:35.821Z,3.32
2019-03-10T21:40:10.039Z,3.35
2019-03-10T21:42:41.329Z,3.29
2019-03-10T21:45:12.524Z,3.26
2019-03-10T21:47:43.712Z,3.29
2019-03-10T21:50:16.162Z,3.27
2019-03-10T21:52:48.336Z,3.27
2019-03-10T21:55:19.479Z,3.24
2019-03-10T21:57:51.711Z,3.27
2019-03-10T22:00:22.847Z,3.19
2019-03-10T22:02:54.910Z,3.18
2019-03-10T22:05:26.683Z,3.10
2019-03-10T22:07:57.825Z,3.13
2019-03-10T22:10:29.731Z,3.20
2019-03-10T22:13:00.901Z,3.20
2019-03-10T22:15:41.070Z,3.22
2019-03-10T22:18:05.864Z,3.26
2019-03-10T22:20:37.034Z,3.32
2019-03-10T22:23:08.301Z,3.38
2019-03-10T22:25:41.003Z,3.43
2019-03-10T22:28:12.158Z,3.46
2019-03-10T22:30:44.675Z,3.48
2019-03-10T22:33:16.356Z,3.54
2019-03-10T22:35:48.357Z,3.56
2019-03-10T22:38:20.071Z,3.59
2019-03-10T22:40:51.122Z,3.69
2019-03-10T22:43:22.368Z,3.66
2019-03-10T22:45:55.662Z,3.67
2019-03-10T22:48:26.851Z,3.68
2019-03-10T22:50:59.482Z,3.73
2019-03-10T22:55:56.262Z,3.88
2019-03-10T22:58:27.398Z,3.85
2019-03-10T23:00:58.661Z,3.89
2019-03-10T23:03:30.270Z,3.90
2019-03-10T23:06:01.459Z,3.95
2019-03-10T23:08:32.602Z,4.00
2019-03-10T23:11:03.769Z,4.03
2019-03-10T23:13:34.899Z,4.08
2019-03-10T23:16:06.063Z,4.10
2019-03-10T23:18:37.239Z,4.12
2019-03-10T23:21:08.391Z,4.14
2019-03-10T23:23:39.591Z,4.20
2019-03-10T23:26:11.779Z,4.19
2019-03-10T23:28:42.951Z,4.21
2019-03-10T23:31:14.227Z,4.21
2019-03-10T23:33:45.654Z,4.19
2019-03-10T23:36:16.896Z,4.18
2019-03-10T23:38:48.255Z,4.24
2019-03-10T23:41:19.368Z,4.24
2019-03-10T23:43:50.575Z,4.25
2019-03-10T23:46:21.775Z,4.25
2019-03-10T23:48:52.944Z,4.26
2019-03-10T23:51:23.453Z,4.26
2019-03-10T23:53:54.658Z,4.26
2019-03-10T23:56:25.779Z,4.30
2019-03-10T23:58:56.929Z,4.33
